createdAt,value
2023-05-05T00:00:22.709Z,19.16
2023-05-05T00:02:50.303Z,19.13
2023-05-05T00:05:17.970Z,19.12
2023-05-05T00:07:45.620Z,19.10
2023-05-05T00:10:14.684Z,19.09
2023-05-05T00:12:42.347Z,19.08
2023-05-05T00:15:10.578Z,19.08
2023-05-05T00:17:38.292Z,19.08
2023-05-05T00:20:07.578Z,19.07
2023-05-05T00:22:36.189Z,19.05
2023-05-05T00:25:04.803Z,19.04
2023-05-05T00:27:33.899Z,19.03
2023-05-05T00:30:01.603Z,19.03
2023-05-05T00:32:29.290Z,19.03
2023-05-05T00:34:56.866Z,19.01
2023-05-05T00:37:24.531Z,19.00
2023-05-05T00:39:52.134Z,19.00
2023-05-05T00:42:19.734Z,18.99
2023-05-05T00:44:48.715Z,18.96
2023-05-05T00:47:16.810Z,18.94
2023-05-05T00:49:44.553Z,18.93
2023-05-05T00:52:12.607Z,18.91
2023-05-05T00:54:41.082Z,18.90
2023-05-05T00:57:08.730Z,18.88
2023-05-05T00:59:37.814Z,18.89
2023-05-05T01:02:06.831Z,18.88
2023-05-05T01:04:34.428Z,18.86
2023-05-05T01:07:22.145Z,18.84
2023-05-05T01:10:11.087Z,18.81
2023-05-05T01:12:52.358Z,18.80
2023-05-05T01:15:28.364Z,18.77
2023-05-05T01:18:04.790Z,18.75
2023-05-05T01:20:41.826Z,18.75
2023-05-05T01:23:14.974Z,18.73
2023-05-05T01:25:57.004Z,18.72
2023-05-05T01:28:49.705Z,18.71
2023-05-05T01:31:51.843Z,18.70
2023-05-05T01:34:24.225Z,18.70
2023-05-05T01:36:57.683Z,18.68
2023-05-05T01:39:29.960Z,18.67
2023-05-05T01:42:00.760Z,18.65
2023-05-05T01:44:29.834Z,18.65
2023-05-05T01:47:00.906Z,18.65
2023-05-05T01:49:29.536Z,18.65
2023-05-05T01:51:58.997Z,18.66
2023-05-05T01:54:27.865Z,18.65
2023-05-05T01:56:58.462Z,18.63
2023-05-05T01:59:28.864Z,18.63
2023-05-05T02:01:58.051Z,18.61
2023-05-05T02:04:31.095Z,18.61
2023-05-05T02:06:59.913Z,18.61
2023-05-05T02:09:29.356Z,18.60
2023-05-05T02:11:59.178Z,18.62
2023-05-05T02:14:29.816Z,18.59
2023-05-05T02:16:59.039Z,18.60
2023-05-05T02:19:31.310Z,18.57
2023-05-05T02:21:59.147Z,18.58
2023-05-05T02:24:27.262Z,18.57
2023-05-05T02:26:57.106Z,18.59
2023-05-05T02:29:32.544Z,18.58
2023-05-05T02:32:03.527Z,18.58
2023-05-05T02:34:37.012Z,18.57
2023-05-05T02:37:10.703Z,18.56
2023-05-05T02:39:43.508Z,18.56
2023-05-05T02:42:13.953Z,18.55
2023-05-05T02:44:43.439Z,18.51
2023-05-05T02:47:11.132Z,18.52
2023-05-05T02:49:40.055Z,18.52
2023-05-05T02:52:07.737Z,18.50
2023-05-05T02:54:35.467Z,18.48
2023-05-05T02:57:03.968Z,18.47
2023-05-05T02:59:37.089Z,18.46
2023-05-05T03:02:15.592Z,18.44
2023-05-05T03:04:50.283Z,18.42
2023-05-05T03:07:26.174Z,18.43
2023-05-05T03:10:03.233Z,18.41
2023-05-05T03:12:37.148Z,18.39
2023-05-05T03:15:06.790Z,18.37
2023-05-05T03:17:36.692Z,18.35
2023-05-05T03:20:07.901Z,18.35
2023-05-05T03:22:36.746Z,18.34
2023-05-05T03:25:04.976Z,18.32
2023-05-05T03:27:32.680Z,18.32
2023-05-05T03:30:00.378Z,18.29
2023-05-05T03:32:28.136Z,18.29
2023-05-05T03:34:55.815Z,18.28
2023-05-05T03:37:24.872Z,18.27
2023-05-05T03:39:52.420Z,18.28
2023-05-05T03:42:19.983Z,18.27
2023-05-05T03:44:47.596Z,18.25
2023-05-05T03:47:15.212Z,18.24
2023-05-05T03:49:42.859Z,18.23
2023-05-05T03:52:10.824Z,18.22
2023-05-05T03:54:40.702Z,18.23
2023-05-05T03:57:08.340Z,18.22
2023-05-05T03:59:35.953Z,18.21
2023-05-05T04:02:03.608Z,18.19
2023-05-05T04:04:31.370Z,18.17
2023-05-05T04:06:59.141Z,18.16
2023-05-05T04:09:26.855Z,18.15
2023-05-05T04:11:56.013Z,18.15
2023-05-05T04:14:23.685Z,18.15
2023-05-05T04:16:51.950Z,18.17
2023-05-05T04:19:19.612Z,18.18
2023-05-05T04:21:47.221Z,18.20
2023-05-05T04:24:14.927Z,18.20
2023-05-05T04:26:42.566Z,18.21
2023-05-05T04:29:11.500Z,18.20
2023-05-05T04:31:39.181Z,18.20
2023-05-05T04:34:06.865Z,18.21
2023-05-05T04:36:34.565Z,18.22
2023-05-05T04:39:02.314Z,18.23
2023-05-05T04:41:30.250Z,18.26
2023-05-05T04:43:57.905Z,18.27
2023-05-05T04:46:26.956Z,18.29
2023-05-05T04:48:54.884Z,18.31
2023-05-05T04:51:22.454Z,18.35
2023-05-05T04:53:49.985Z,18.38
2023-05-05T04:56:17.564Z,18.42
2023-05-05T04:58:45.336Z,18.47
2023-05-05T05:01:12.876Z,18.48
2023-05-05T05:03:41.978Z,18.47
2023-05-05T05:06:09.525Z,18.46
2023-05-05T05:08:37.179Z,18.47
2023-05-05T05:11:04.835Z,18.62
2023-05-05T05:13:32.591Z,18.64
2023-05-05T05:16:00.322Z,18.58
2023-05-05T05:18:28.090Z,18.57
2023-05-05T05:20:57.119Z,18.61
2023-05-05T05:23:24.757Z,18.63
2023-05-05T05:25:53.081Z,18.71
2023-05-05T05:28:20.625Z,18.77
2023-05-05T05:30:48.267Z,18.83
2023-05-05T05:33:15.926Z,18.88
2023-05-05T05:35:43.522Z,18.93
2023-05-05T05:38:13.390Z,18.98
2023-05-05T05:40:41.010Z,18.93
2023-05-05T05:43:08.556Z,18.90
2023-05-05T05:45:36.148Z,18.91
2023-05-05T05:48:03.858Z,18.92
2023-05-05T05:50:31.605Z,18.93
2023-05-05T05:52:59.213Z,18.95
2023-05-05T05:55:28.247Z,18.96
2023-05-05T05:57:55.854Z,18.94
2023-05-05T06:00:23.591Z,18.98
2023-05-05T06:02:51.554Z,19.03
2023-05-05T06:05:19.347Z,19.09
2023-05-05T06:07:47.002Z,19.12
2023-05-05T06:10:26.646Z,19.21
2023-05-05T06:12:57.260Z,19.32
2023-05-05T06:15:25.740Z,19.38
2023-05-05T06:17:53.545Z,19.43
2023-05-05T06:20:21.283Z,19.50
2023-05-05T06:22:48.927Z,19.55
2023-05-05T06:25:17.029Z,19.58
2023-05-05T06:27:44.589Z,19.59
2023-05-05T06:30:14.878Z,19.62
2023-05-05T06:32:42.518Z,19.65
2023-05-05T06:35:10.942Z,19.70
2023-05-05T06:37:38.553Z,19.72
2023-05-05T06:40:07.894Z,19.72
2023-05-05T06:42:35.893Z,19.70
2023-05-05T06:45:03.487Z,19.65
2023-05-05T06:47:32.422Z,19.61
2023-05-05T06:50:00.118Z,19.59
2023-05-05T06:52:27.736Z,19.58
2023-05-05T06:54:55.784Z,19.59
2023-05-05T06:57:23.365Z,19.60
2023-05-05T06:59:51.071Z,19.60
2023-05-05T07:02:18.717Z,19.59
2023-05-05T07:04:47.755Z,19.57
2023-05-05T07:07:15.349Z,19.65
2023-05-05T07:09:44.912Z,19.71
2023-05-05T07:12:12.519Z,19.75
2023-05-05T07:14:40.084Z,19.80
2023-05-05T07:17:07.742Z,19.93
2023-05-05T07:19:35.308Z,20.02
2023-05-05T07:22:04.228Z,20.07
2023-05-05T07:24:31.770Z,20.12
2023-05-05T07:26:59.858Z,20.17
2023-05-05T07:29:27.703Z,20.23
2023-05-05T07:31:55.425Z,20.24
2023-05-05T07:34:23.078Z,20.28
2023-05-05T07:36:50.774Z,20.31
2023-05-05T07:39:21.047Z,20.38
2023-05-05T07:41:48.642Z,20.45
2023-05-05T07:44:16.306Z,20.53
2023-05-05T07:46:43.841Z,20.60
2023-05-05T07:49:11.464Z,20.64
2023-05-05T07:51:39.067Z,20.72
2023-05-05T07:54:06.845Z,20.82
2023-05-05T07:56:35.873Z,20.91
2023-05-05T07:59:03.529Z,20.99
2023-05-05T08:01:31.142Z,21.04
2023-05-05T08:03:58.866Z,21.05
2023-05-05T08:06:28.449Z,21.03
2023-05-05T08:08:56.654Z,20.99
2023-05-05T08:11:24.292Z,20.93
2023-05-05T08:13:53.315Z,20.90
2023-05-05T08:16:20.971Z,20.92
2023-05-05T08:18:48.634Z,20.95
2023-05-05T08:21:16.240Z,20.95
2023-05-05T08:23:43.770Z,20.98
2023-05-05T08:26:11.358Z,21.00
2023-05-05T08:28:38.987Z,21.03
2023-05-05T08:31:08.800Z,21.07
2023-05-05T08:33:36.387Z,21.07
2023-05-05T08:36:04.134Z,21.11
2023-05-05T08:38:32.079Z,21.16
2023-05-05T08:40:59.694Z,21.19
2023-05-05T08:43:27.404Z,21.20
2023-05-05T08:45:56.892Z,21.24
2023-05-05T08:48:29.164Z,21.26
2023-05-05T08:51:00.801Z,21.30
2023-05-05T08:53:42.351Z,21.36
2023-05-05T08:56:11.445Z,21.43
2023-05-05T08:58:39.571Z,21.45
2023-05-05T09:01:08.359Z,21.48
2023-05-05T09:03:38.543Z,21.48
2023-05-05T09:06:06.790Z,21.50
2023-05-05T09:08:34.882Z,21.50
2023-05-05T09:11:02.846Z,21.51
2023-05-05T09:13:31.786Z,21.51
2023-05-05T09:15:59.955Z,21.50
2023-05-05T09:18:28.002Z,21.50
2023-05-05T09:20:59.373Z,21.50
2023-05-05T09:23:27.224Z,21.52
2023-05-05T09:26:05.796Z,21.56
2023-05-05T09:28:33.492Z,21.59
2023-05-05T09:31:15.655Z,21.62
2023-05-05T09:33:44.263Z,21.65
2023-05-05T09:36:13.233Z,21.68
2023-05-05T09:38:40.824Z,21.72
2023-05-05T09:41:08.461Z,21.76
2023-05-05T09:43:52.314Z,21.79
2023-05-05T09:46:20.080Z,21.81
2023-05-05T09:48:47.790Z,21.81
2023-05-05T09:51:16.965Z,21.81
2023-05-05T09:53:44.961Z,21.80
2023-05-05T09:56:13.097Z,21.78
2023-05-05T09:58:41.631Z,21.78
2023-05-05T10:01:23.119Z,21.80
2023-05-05T10:03:51.953Z,21.83
2023-05-05T10:06:21.894Z,21.86
2023-05-05T10:09:02.090Z,21.89
2023-05-05T10:11:29.832Z,21.92
2023-05-05T10:13:58.127Z,21.96
2023-05-05T10:16:27.458Z,21.99
2023-05-05T10:18:57.423Z,21.99
2023-05-05T10:21:27.900Z,22.00
2023-05-05T10:24:04.452Z,22.03
2023-05-05T10:26:38.506Z,22.05
2023-05-05T10:29:12.423Z,22.06
2023-05-05T10:31:46.447Z,22.08
2023-05-05T10:34:21.859Z,22.10
2023-05-05T10:36:53.470Z,22.11
2023-05-05T10:39:21.953Z,22.11
2023-05-05T10:41:50.955Z,22.12
2023-05-05T10:44:19.017Z,22.16
2023-05-05T10:46:47.577Z,22.20
2023-05-05T10:49:25.657Z,22.21
2023-05-05T10:52:10.439Z,22.19
2023-05-05T10:54:44.155Z,22.16
2023-05-05T10:57:13.220Z,22.15
2023-05-05T10:59:44.403Z,22.16
2023-05-05T11:02:21.968Z,22.20
2023-05-05T11:05:12.171Z,22.19
2023-05-05T11:07:42.771Z,22.25
2023-05-05T11:10:11.667Z,22.28
2023-05-05T11:13:12.741Z,22.30
2023-05-05T11:15:40.603Z,22.32
2023-05-05T11:18:08.783Z,22.41
2023-05-05T11:21:19.377Z,22.48
2023-05-05T11:23:52.844Z,22.53
2023-05-05T11:26:50.908Z,22.52
2023-05-05T11:29:19.899Z,22.53
2023-05-05T11:32:15.486Z,22.53
2023-05-05T11:34:49.859Z,22.51
2023-05-05T11:37:17.550Z,22.50
2023-05-05T11:39:55.803Z,22.52
2023-05-05T11:42:26.046Z,22.51
2023-05-05T11:44:55.966Z,22.49
2023-05-05T11:47:31.960Z,22.50
2023-05-05T11:50:00.209Z,22.55
2023-05-05T11:52:28.435Z,22.59
2023-05-05T11:55:01.852Z,22.64
2023-05-05T11:57:30.649Z,22.66
2023-05-05T12:00:02.063Z,22.68
2023-05-05T12:02:31.227Z,22.72
2023-05-05T12:05:00.865Z,22.74
2023-05-05T12:07:30.120Z,22.74
2023-05-05T12:09:57.965Z,22.74
2023-05-05T12:12:35.884Z,22.77
2023-05-05T12:15:06.414Z,22.76
2023-05-05T12:17:40.009Z,22.75
2023-05-05T12:20:10.139Z,22.74
2023-05-05T12:22:38.263Z,22.73
2023-05-05T12:25:08.105Z,22.72
2023-05-05T12:27:36.361Z,22.67
2023-05-05T12:30:17.506Z,22.66
2023-05-05T12:32:46.471Z,22.60
2023-05-05T12:35:15.827Z,22.54
2023-05-05T12:37:43.991Z,22.54
2023-05-05T12:40:47.899Z,22.54
2023-05-05T12:43:26.481Z,22.50
2023-05-05T12:46:10.001Z,22.48
2023-05-05T12:48:39.184Z,22.43
2023-05-05T12:51:14.662Z,22.48
2023-05-05T12:53:42.603Z,22.49
2023-05-05T12:56:34.790Z,22.54
2023-05-05T12:59:03.703Z,22.53
2023-05-05T13:01:33.386Z,22.51
2023-05-05T13:04:11.828Z,22.55
2023-05-05T13:06:40.432Z,22.60
2023-05-05T13:09:09.592Z,22.59
2023-05-05T13:11:38.136Z,22.61
2023-05-05T13:14:07.229Z,22.64
2023-05-05T13:16:36.291Z,22.71
2023-05-05T13:19:03.835Z,22.69
2023-05-05T13:21:31.530Z,22.72
2023-05-05T13:24:12.372Z,22.76
2023-05-05T13:26:46.951Z,22.73
2023-05-05T13:29:14.587Z,22.77
2023-05-05T13:31:43.744Z,22.76
2023-05-05T13:34:11.712Z,22.76
2023-05-05T13:36:39.350Z,22.79
2023-05-05T13:39:07.227Z,22.76
2023-05-05T13:41:34.870Z,22.69
2023-05-05T13:44:02.746Z,22.60
2023-05-05T13:46:30.647Z,22.57
2023-05-05T13:48:59.608Z,22.55
2023-05-05T13:51:27.734Z,22.55
2023-05-05T13:53:55.349Z,22.53
2023-05-05T13:56:26.001Z,22.51
2023-05-05T13:58:53.628Z,22.48
2023-05-05T14:01:21.277Z,22.42
2023-05-05T14:03:48.890Z,22.36
2023-05-05T14:06:17.909Z,22.32
2023-05-05T14:08:46.089Z,22.28
2023-05-05T14:11:13.833Z,22.23
2023-05-05T14:13:41.526Z,22.20
2023-05-05T14:16:09.162Z,22.17
2023-05-05T14:18:36.807Z,22.14
2023-05-05T14:21:04.534Z,22.12
2023-05-05T14:23:33.493Z,22.08
2023-05-05T14:26:01.187Z,22.06
2023-05-05T14:28:28.834Z,22.04
2023-05-05T14:30:56.670Z,22.02
2023-05-05T14:33:24.289Z,22.01
2023-05-05T14:35:52.000Z,22.00
2023-05-05T14:38:19.655Z,21.96
2023-05-05T14:40:48.732Z,21.94
2023-05-05T14:43:16.368Z,21.93
2023-05-05T14:45:44.218Z,21.92
2023-05-05T14:48:12.385Z,21.90
2023-05-05T14:50:42.354Z,21.88
2023-05-05T14:53:09.991Z,21.86
2023-05-05T14:55:38.088Z,21.84
2023-05-05T14:58:07.062Z,21.81
2023-05-05T15:00:34.649Z,21.80
2023-05-05T15:03:02.474Z,21.78
2023-05-05T15:05:30.165Z,21.76
2023-05-05T15:07:57.719Z,21.74
2023-05-05T15:10:25.588Z,21.72
2023-05-05T15:12:53.177Z,21.70
2023-05-05T15:15:22.191Z,21.68
2023-05-05T15:17:49.889Z,21.65
2023-05-05T15:20:17.551Z,21.63
2023-05-05T15:22:45.167Z,21.60
2023-05-05T15:25:14.810Z,21.58
2023-05-05T15:27:42.619Z,21.53
2023-05-05T15:30:11.348Z,21.50
2023-05-05T15:32:40.445Z,21.47
2023-05-05T15:35:09.339Z,21.45
2023-05-05T15:37:37.771Z,21.41
2023-05-05T15:40:06.677Z,21.39
2023-05-05T15:42:34.510Z,21.38
2023-05-05T15:45:02.887Z,21.37
2023-05-05T15:47:30.640Z,21.38
2023-05-05T15:49:59.682Z,21.39
2023-05-05T15:52:27.599Z,21.41
2023-05-05T15:54:55.208Z,21.41
2023-05-05T15:57:22.887Z,21.40
2023-05-05T15:59:51.932Z,21.41
2023-05-05T16:02:19.618Z,21.37
2023-05-05T16:04:47.756Z,21.38
2023-05-05T16:07:16.984Z,21.36
2023-05-05T16:09:45.144Z,21.35
2023-05-05T16:12:12.809Z,21.36
2023-05-05T16:14:40.443Z,21.36
2023-05-05T16:17:08.910Z,21.39
2023-05-05T16:19:36.547Z,21.51
2023-05-05T16:22:04.145Z,21.60
2023-05-05T16:24:33.107Z,21.61
2023-05-05T16:27:00.721Z,21.57
2023-05-05T16:29:28.346Z,21.52
2023-05-05T16:31:56.068Z,21.47
2023-05-05T16:34:23.806Z,21.46
2023-05-05T16:36:53.257Z,21.44
2023-05-05T16:39:20.856Z,21.44
2023-05-05T16:41:49.835Z,21.43
2023-05-05T16:44:17.410Z,21.41
2023-05-05T16:46:45.036Z,21.38
2023-05-05T16:49:12.777Z,21.36
2023-05-05T16:51:40.686Z,21.32
2023-05-05T16:54:08.345Z,21.29
2023-05-05T16:56:36.038Z,21.27
2023-05-05T16:59:05.008Z,21.26
2023-05-05T17:01:34.663Z,21.24
2023-05-05T17:04:02.471Z,21.22
2023-05-05T17:06:32.748Z,21.19
2023-05-05T17:09:00.408Z,21.18
2023-05-05T17:11:27.999Z,21.19
2023-05-05T17:13:55.991Z,21.22
2023-05-05T17:16:25.097Z,21.23
2023-05-05T17:18:54.544Z,21.25
2023-05-05T17:21:22.153Z,21.24
2023-05-05T17:23:50.094Z,21.20
2023-05-05T17:26:17.695Z,21.21
2023-05-05T17:28:45.279Z,21.19
2023-05-05T17:31:12.948Z,21.21
2023-05-05T17:33:41.949Z,21.20
2023-05-05T17:36:10.265Z,21.18
2023-05-05T17:38:37.882Z,21.16
2023-05-05T17:41:06.306Z,21.13
2023-05-05T17:43:33.934Z,21.09
2023-05-05T17:46:01.653Z,21.07
2023-05-05T17:48:29.321Z,21.07
2023-05-05T17:50:59.352Z,21.07
2023-05-05T17:53:27.342Z,21.05
2023-05-05T17:55:55.010Z,21.04
2023-05-05T17:58:22.599Z,21.02
2023-05-05T18:00:50.851Z,20.99
2023-05-05T18:03:18.661Z,20.97
2023-05-05T18:05:46.469Z,20.94
2023-05-05T18:08:15.405Z,20.92
2023-05-05T18:10:43.124Z,20.90
2023-05-05T18:13:10.752Z,20.89
2023-05-05T18:15:38.425Z,20.86
2023-05-05T18:18:06.160Z,20.83
2023-05-05T18:20:33.720Z,20.79
2023-05-05T18:23:01.362Z,20.77
2023-05-05T18:25:30.531Z,20.73
2023-05-05T18:27:58.368Z,20.70
2023-05-05T18:30:26.266Z,20.68
2023-05-05T18:32:53.947Z,20.67
2023-05-05T18:35:21.583Z,20.65
2023-05-05T18:37:49.712Z,20.65
2023-05-05T18:40:17.538Z,20.62
2023-05-05T18:42:46.524Z,20.60
2023-05-05T18:45:14.189Z,20.59
2023-05-05T18:47:42.066Z,20.57
2023-05-05T18:50:10.283Z,20.56
2023-05-05T18:52:37.945Z,20.53
2023-05-05T18:55:06.723Z,20.52
2023-05-05T18:57:34.345Z,20.50
2023-05-05T19:00:03.281Z,20.49
2023-05-05T19:02:31.009Z,20.48
2023-05-05T19:04:58.644Z,20.47
2023-05-05T19:07:35.040Z,20.46
2023-05-05T19:10:05.142Z,20.45
2023-05-05T19:12:32.953Z,20.43
2023-05-05T19:15:01.246Z,20.42
2023-05-05T19:17:30.162Z,20.40
2023-05-05T19:19:57.785Z,20.38
2023-05-05T19:22:25.579Z,20.37
2023-05-05T19:24:53.224Z,20.37
2023-05-05T19:27:21.420Z,20.36
2023-05-05T19:29:52.007Z,20.33
2023-05-05T19:32:20.011Z,20.32
2023-05-05T19:34:49.141Z,20.30
2023-05-05T19:37:16.796Z,20.29
2023-05-05T19:39:45.586Z,20.28
2023-05-05T19:42:13.315Z,20.27
2023-05-05T19:44:40.950Z,20.26
2023-05-05T19:47:09.034Z,20.25
2023-05-05T19:49:38.440Z,20.22
2023-05-05T19:52:07.533Z,20.21
2023-05-05T19:54:36.055Z,20.21
2023-05-05T19:57:03.888Z,20.20
2023-05-05T19:59:31.601Z,20.17
2023-05-05T20:01:59.269Z,20.15
2023-05-05T20:04:27.085Z,20.13
2023-05-05T20:06:54.728Z,20.11
2023-05-05T20:09:23.653Z,20.09
2023-05-05T20:11:51.269Z,20.07
2023-05-05T20:14:18.858Z,20.06
2023-05-05T20:16:46.428Z,20.04
2023-05-05T20:19:14.103Z,20.02
2023-05-05T20:21:41.825Z,20.01
2023-05-05T20:24:09.704Z,19.99
2023-05-05T20:26:38.666Z,19.97
2023-05-05T20:29:06.290Z,19.96
2023-05-05T20:31:34.854Z,19.94
2023-05-05T20:34:02.608Z,19.91
2023-05-05T20:36:30.236Z,19.89
2023-05-05T20:38:57.900Z,19.89
2023-05-05T20:41:25.691Z,19.87
2023-05-05T20:43:54.683Z,19.85
2023-05-05T20:46:22.343Z,19.83
2023-05-05T20:48:49.984Z,19.80
2023-05-05T20:51:17.583Z,19.78
2023-05-05T20:53:45.324Z,19.77
2023-05-05T20:56:12.928Z,19.75
2023-05-05T20:58:41.080Z,19.74
2023-05-05T21:01:10.148Z,19.74
2023-05-05T21:03:38.129Z,19.73
2023-05-05T21:06:06.179Z,19.70
2023-05-05T21:08:33.781Z,19.68
2023-05-05T21:11:01.469Z,19.68
2023-05-05T21:13:29.154Z,19.71
2023-05-05T21:15:56.756Z,19.70
2023-05-05T21:18:27.461Z,19.68
2023-05-05T21:20:55.324Z,19.64
2023-05-05T21:23:23.063Z,19.61
2023-05-05T21:25:50.784Z,19.60
2023-05-05T21:28:18.383Z,19.58
2023-05-05T21:30:54.778Z,19.58
2023-05-05T21:33:34.035Z,19.56
2023-05-05T21:36:01.912Z,19.57
2023-05-05T21:38:29.599Z,19.55
2023-05-05T21:40:58.052Z,19.52
2023-05-05T21:43:28.554Z,19.52
2023-05-05T21:45:59.867Z,19.50
2023-05-05T21:48:27.738Z,19.49
2023-05-05T21:50:56.669Z,19.46
2023-05-05T21:53:24.555Z,19.45
2023-05-05T21:55:52.471Z,19.44
2023-05-05T21:58:20.180Z,19.42
2023-05-05T22:00:49.771Z,19.42
2023-05-05T22:03:17.505Z,19.42
2023-05-05T22:05:46.019Z,19.41
2023-05-05T22:08:15.026Z,19.40
2023-05-05T22:10:42.741Z,19.36
2023-05-05T22:13:10.854Z,19.34
2023-05-05T22:15:45.848Z,19.32
2023-05-05T22:18:14.745Z,19.32
2023-05-05T22:20:42.712Z,19.31
2023-05-05T22:23:10.425Z,19.29
2023-05-05T22:25:39.380Z,19.27
2023-05-05T22:28:07.051Z,19.28
2023-05-05T22:30:34.738Z,19.26
2023-05-05T22:33:02.571Z,19.24
2023-05-05T22:35:30.377Z,19.22
2023-05-05T22:37:58.186Z,19.21
2023-05-05T22:40:25.872Z,19.21
2023-05-05T22:42:54.851Z,19.18
2023-05-05T22:45:22.861Z,19.16
2023-05-05T22:47:50.932Z,19.16
2023-05-05T22:50:18.696Z,19.14
2023-05-05T22:52:46.628Z,19.12
2023-05-05T22:55:15.109Z,19.11
2023-05-05T22:57:43.389Z,19.09
2023-05-05T23:00:13.057Z,19.08
2023-05-05T23:02:41.444Z,19.08
2023-05-05T23:05:10.344Z,19.07
2023-05-05T23:07:38.422Z,19.03
2023-05-05T23:10:07.053Z,19.02
2023-05-05T23:12:34.643Z,19.02
2023-05-05T23:15:02.264Z,19.01
2023-05-05T23:17:31.327Z,19.00
2023-05-05T23:19:58.954Z,19.01
2023-05-05T23:22:26.629Z,18.98
2023-05-05T23:24:54.349Z,18.95
2023-05-05T23:27:22.999Z,18.95
2023-05-05T23:29:50.598Z,18.94
2023-05-05T23:32:18.291Z,18.94
2023-05-05T23:34:47.304Z,18.92
2023-05-05T23:37:15.121Z,18.91
2023-05-05T23:39:43.046Z,18.91
2023-05-05T23:42:10.671Z,18.89
2023-05-05T23:44:38.342Z,18.87
2023-05-05T23:47:06.543Z,18.88
2023-05-05T23:49:34.227Z,18.86
2023-05-05T23:52:03.259Z,18.85
2023-05-05T23:54:30.889Z,18.85
2023-05-05T23:56:58.641Z,18.86
2023-05-05T23:59:26.287Z,18.87
